createdAt,value
2022-08-21T00:01:44.600Z,99.9
2022-08-21T00:03:50.888Z,99.9
2022-08-21T00:06:00.031Z,99.9
2022-08-21T00:08:06.477Z,99.9
2022-08-21T00:14:25.542Z,99.9
2022-08-21T00:16:31.961Z,99.9
2022-08-21T00:18:38.333Z,99.9
2022-08-21T00:20:47.503Z,99.9
2022-08-21T00:22:53.893Z,99.9
2022-08-21T00:25:00.208Z,99.9
2022-08-21T00:29:12.969Z,99.9
2022-08-21T00:31:19.368Z,99.9
2022-08-21T00:33:25.758Z,99.9
2022-08-21T00:35:34.972Z,99.9
2022-08-21T00:37:41.393Z,99.9
2022-08-21T00:41:54.157Z,99.9
2022-08-21T00:44:00.557Z,99.9
2022-08-21T00:48:13.340Z,99.9
2022-08-21T00:50:22.489Z,99.9
2022-08-21T00:55:39.928Z,99.9
2022-08-21T00:57:46.316Z,99.9
2022-08-21T00:59:52.745Z,99.9
2022-08-21T01:01:59.140Z,99.9
2022-08-21T01:04:08.379Z,99.9
2022-08-21T01:06:14.772Z,99.9
2022-08-21T01:08:21.189Z,99.9
2022-08-21T01:10:27.565Z,99.9
2022-08-21T01:12:33.973Z,99.9
2022-08-21T01:14:40.385Z,99.9
2022-08-21T01:18:56.004Z,99.9
2022-08-21T01:21:02.410Z,99.9
2022-08-21T01:23:08.826Z,99.9
2022-08-21T01:25:15.222Z,99.9
2022-08-21T01:27:21.617Z,99.9
2022-08-21T01:29:28.036Z,99.9
2022-08-21T01:33:43.678Z,99.9
2022-08-21T01:35:50.104Z,99.9
2022-08-21T01:37:56.460Z,99.9
2022-08-21T01:40:02.984Z,99.9
2022-08-21T01:44:15.701Z,99.9
2022-08-21T01:46:22.079Z,99.9
2022-08-21T01:48:31.316Z,99.9
2022-08-21T01:50:37.719Z,99.9
2022-08-21T01:52:44.122Z,99.9
2022-08-21T01:53:48.757Z,99.9
2022-08-21T01:55:55.172Z,99.9
2022-08-21T01:58:01.558Z,99.9
2022-08-21T02:00:07.940Z,99.9
2022-08-21T02:02:17.198Z,99.9
2022-08-21T02:04:23.585Z,99.9
2022-08-21T02:06:29.993Z,99.9
2022-08-21T02:08:36.394Z,99.9
2022-08-21T02:10:42.808Z,99.9
2022-08-21T02:12:49.223Z,99.9
2022-08-21T02:14:55.579Z,99.9
2022-08-21T02:17:09.031Z,99.9
2022-08-21T02:19:11.222Z,99.9
2022-08-21T02:21:17.623Z,99.9
2022-08-21T02:23:26.591Z,99.9
2022-08-21T02:25:30.455Z,99.9
2022-08-21T02:27:36.844Z,99.9
2022-08-21T02:29:43.220Z,99.9
2022-08-21T02:31:53.987Z,99.9
2022-08-21T02:34:00.395Z,99.9
2022-08-21T02:36:06.806Z,99.9
2022-08-21T02:38:13.376Z,99.9
2022-08-21T02:40:19.658Z,99.9
2022-08-21T02:42:26.007Z,99.9
2022-08-21T02:44:34.266Z,99.9
2022-08-21T02:46:41.620Z,99.9
2022-08-21T02:48:48.035Z,99.9
2022-08-21T02:50:54.430Z,99.9
2022-08-21T02:51:59.044Z,99.9
2022-08-21T02:56:11.871Z,99.9
2022-08-21T03:00:27.469Z,99.9
2022-08-21T03:04:44.551Z,99.9
2022-08-21T03:06:46.667Z,99.9
2022-08-21T03:08:53.089Z,99.9
2022-08-21T03:10:59.479Z,99.9
2022-08-21T03:13:05.846Z,99.9
2022-08-21T03:15:15.070Z,99.9
2022-08-21T03:17:29.224Z,99.9
2022-08-21T03:19:27.860Z,99.9
2022-08-21T03:21:34.244Z,99.9
2022-08-21T03:23:40.671Z,99.9
2022-08-21T03:25:47.029Z,99.9
2022-08-21T03:27:58.305Z,99.9
2022-08-21T03:34:15.547Z,99.9
2022-08-21T03:36:21.880Z,99.9
2022-08-21T03:38:28.299Z,99.9
2022-08-21T03:40:34.706Z,99.9
2022-08-21T03:42:41.105Z,99.9
2022-08-21T03:44:50.299Z,99.9
2022-08-21T03:46:56.724Z,99.9
2022-08-21T03:49:03.132Z,99.9
2022-08-21T03:51:29.318Z,99.9
2022-08-21T03:53:35.687Z,99.9
2022-08-21T03:55:42.071Z,99.9
2022-08-21T04:04:10.518Z,99.9
2022-08-21T04:06:16.927Z,99.9
2022-08-21T04:08:23.326Z,99.9
2022-08-21T04:10:32.808Z,99.9
2022-08-21T04:12:38.923Z,99.9
2022-08-21T04:14:45.333Z,99.9
2022-08-21T04:16:51.738Z,99.9
2022-08-21T04:18:58.117Z,99.9
2022-08-21T04:21:04.575Z,99.9
2022-08-21T04:23:10.942Z,99.9
2022-08-21T04:25:17.321Z,99.9
2022-08-21T04:27:26.548Z,99.9
2022-08-21T04:29:35.176Z,99.9
2022-08-21T04:31:39.361Z,99.9
2022-08-21T04:33:45.735Z,99.9
2022-08-21T04:35:52.113Z,99.9
2022-08-21T04:37:58.536Z,99.9
2022-08-21T04:40:05.013Z,99.9
2022-08-21T04:42:14.179Z,99.9
2022-08-21T04:44:20.560Z,99.9
2022-08-21T04:46:26.990Z,99.9
2022-08-21T04:47:52.094Z,99.9
2022-08-21T04:51:44.366Z,99.9
2022-08-21T04:53:50.788Z,99.9
2022-08-21T04:56:00.029Z,99.9
2022-08-21T04:58:06.419Z,99.9
2022-08-21T05:00:14.347Z,99.9
2022-08-21T05:04:25.604Z,99.9
2022-08-21T05:06:32.001Z,99.9
2022-08-21T05:08:38.400Z,99.9
2022-08-21T05:10:47.611Z,99.9
2022-08-21T05:12:54.051Z,99.9
2022-08-21T05:19:13.622Z,99.9
2022-08-21T05:21:19.665Z,99.9
2022-08-21T05:25:35.244Z,99.9
2022-08-21T05:27:42.816Z,99.9
2022-08-21T05:31:54.465Z,99.9
2022-08-21T05:38:17.901Z,99.9
2022-08-21T05:40:23.331Z,99.9
2022-08-21T05:42:29.296Z,99.9
2022-08-21T05:44:35.613Z,99.9
2022-08-21T05:45:43.505Z,99.9
2022-08-21T05:47:46.663Z,99.9
2022-08-21T05:49:53.058Z,99.9
2022-08-21T05:51:59.458Z,99.9
2022-08-21T05:56:14.990Z,99.9
2022-08-21T05:58:21.413Z,99.9
2022-08-21T06:00:27.794Z,99.9
2022-08-21T06:02:34.223Z,99.9
2022-08-21T06:11:02.390Z,99.9
2022-08-21T06:13:08.944Z,99.9
2022-08-21T06:15:15.208Z,99.9
2022-08-21T06:17:21.591Z,99.9
2022-08-21T06:23:43.399Z,99.9
2022-08-21T06:25:49.806Z,99.9
2022-08-21T06:27:56.198Z,99.9
2022-08-21T06:30:02.575Z,99.9
2022-08-21T06:32:08.904Z,99.9
2022-08-21T06:34:15.299Z,99.9
2022-08-21T06:36:21.622Z,99.9
2022-08-21T06:38:30.883Z,99.9
2022-08-21T06:40:37.167Z,99.9
2022-08-21T06:42:43.473Z,99.9
2022-08-21T06:43:47.996Z,99.9
2022-08-21T06:45:54.313Z,99.9
2022-08-21T06:48:00.571Z,99.9
2022-08-21T06:50:06.844Z,91.5
2022-08-21T06:52:15.848Z,90.3
2022-08-21T06:54:22.144Z,90.2
2022-08-21T06:56:28.409Z,99.6
2022-08-21T06:58:34.665Z,99.8
2022-08-21T07:00:40.937Z,99.8
2022-08-21T07:02:47.184Z,99.8
2022-08-21T07:07:02.409Z,99.8
2022-08-21T07:09:08.679Z,99.9
2022-08-21T07:11:14.946Z,99.9
2022-08-21T07:13:21.190Z,99.9
2022-08-21T07:15:27.435Z,99.9
2022-08-21T07:17:33.707Z,99.9
2022-08-21T07:19:39.978Z,99.9
2022-08-21T07:21:48.967Z,99.9
2022-08-21T07:23:55.225Z,99.9
2022-08-21T07:26:01.490Z,99.9
2022-08-21T07:28:07.733Z,99.1
2022-08-21T07:30:13.964Z,96.8
2022-08-21T07:32:21.490Z,96.3
2022-08-21T07:38:41.672Z,85.3
2022-08-21T07:40:47.891Z,83.5
2022-08-21T07:43:07.916Z,78.3
2022-08-21T07:45:14.116Z,77.4
2022-08-21T07:47:41.714Z,76.5
2022-08-21T07:49:29.290Z,76.5
2022-08-21T07:51:35.476Z,77.1
2022-08-21T07:53:41.651Z,76.9
2022-08-21T07:55:47.811Z,77.4
2022-08-21T08:04:15.227Z,75.3
2022-08-21T08:06:21.365Z,75.6
2022-08-21T08:10:33.658Z,74.5
2022-08-21T08:12:39.776Z,72.6
2022-08-21T08:14:45.893Z,71.4
2022-08-21T08:16:52.007Z,71.4
2022-08-21T08:19:00.884Z,70.9
2022-08-21T08:21:06.976Z,72.1
2022-08-21T08:23:13.075Z,74.4
2022-08-21T08:27:25.259Z,78.6
2022-08-21T08:29:31.301Z,78.6
2022-08-21T08:35:53.679Z,75.8
2022-08-21T08:37:59.744Z,75
2022-08-21T08:39:04.051Z,74
2022-08-21T08:41:10.009Z,73.8
2022-08-21T08:43:15.960Z,73.7
2022-08-21T08:45:21.920Z,75
2022-08-21T08:47:30.522Z,75.9
2022-08-21T08:49:36.448Z,76.7
2022-08-21T08:51:42.367Z,76.8
2022-08-21T08:53:48.324Z,74.2
2022-08-21T08:55:54.244Z,74.3
2022-08-21T09:12:44.239Z,77
2022-08-21T09:14:50.157Z,77.2
2022-08-21T09:16:58.746Z,78
2022-08-21T09:19:04.661Z,78
2022-08-21T09:23:16.475Z,75.9
2022-08-21T09:25:23.230Z,75.5
2022-08-21T09:27:28.249Z,75.2
2022-08-21T09:29:34.130Z,74.9
2022-08-21T09:31:42.726Z,74.7
2022-08-21T09:33:48.617Z,74.6
2022-08-21T09:35:54.499Z,74.2
2022-08-21T09:36:58.828Z,73.7
2022-08-21T09:39:04.676Z,71.6
2022-08-21T09:41:10.542Z,70.4
2022-08-21T09:43:16.425Z,69.5
2022-08-21T09:45:25.005Z,67.8
2022-08-21T09:49:36.676Z,67.2
2022-08-21T09:51:42.524Z,66.8
2022-08-21T09:53:48.353Z,66.4
2022-08-21T09:55:54.171Z,65.6
2022-08-21T09:57:59.971Z,65.5
2022-08-21T10:00:08.507Z,69.9
2022-08-21T10:02:14.320Z,70.1
2022-08-21T10:04:20.142Z,69.1
2022-08-21T10:06:25.964Z,71.8
2022-08-21T10:12:43.510Z,71
2022-08-21T10:19:03.764Z,66.9
2022-08-21T10:21:11.979Z,65.8
2022-08-21T10:23:15.416Z,65.7
2022-08-21T10:25:21.296Z,66.5
2022-08-21T10:27:27.155Z,70.9
2022-08-21T10:29:35.691Z,69.5
2022-08-21T10:31:41.552Z,65.8
2022-08-21T10:33:47.447Z,65.3
2022-08-21T10:36:57.584Z,65.2
2022-08-21T10:41:09.340Z,65.8
2022-08-21T10:43:17.907Z,67.2
2022-08-21T10:47:29.651Z,67.7
2022-08-21T10:53:47.301Z,66.7
2022-08-21T10:55:53.171Z,66.3
2022-08-21T10:58:01.820Z,66.7
2022-08-21T11:00:07.687Z,67
2022-08-21T11:02:13.580Z,66.8
2022-08-21T11:04:19.463Z,66.6
2022-08-21T11:06:25.380Z,66.5
2022-08-21T11:10:37.165Z,61.8
2022-08-21T11:12:45.730Z,61
2022-08-21T11:14:51.636Z,60.7
2022-08-21T11:16:57.499Z,60.4
2022-08-21T11:19:03.355Z,59.8
2022-08-21T11:21:09.215Z,59.8
2022-08-21T11:23:15.088Z,60.2
2022-08-21T11:25:20.919Z,60.6
2022-08-21T11:27:29.482Z,61.6
2022-08-21T11:34:04.629Z,62.2
2022-08-21T11:36:10.516Z,62.1
2022-08-21T11:38:16.403Z,61.9
2022-08-21T11:40:25.025Z,61
2022-08-21T11:42:30.816Z,60.7
2022-08-21T11:44:36.707Z,60.5
2022-08-21T11:48:48.447Z,59.9
2022-08-21T11:50:54.264Z,59.8
2022-08-21T11:53:00.318Z,59.5
2022-08-21T11:55:08.641Z,59.5
2022-08-21T11:57:14.457Z,59.8
2022-08-21T11:59:20.304Z,59.9
2022-08-21T12:01:26.109Z,59.9
2022-08-21T12:03:31.948Z,58.2
2022-08-21T12:05:37.762Z,58
2022-08-21T12:07:43.635Z,57.5
2022-08-21T12:09:52.142Z,57
2022-08-21T12:11:57.958Z,57.2
2022-08-21T12:14:03.760Z,56.6
2022-08-21T12:16:09.603Z,56.6
2022-08-21T12:20:21.216Z,56.6
2022-08-21T12:24:35.539Z,56.9
2022-08-21T12:26:41.365Z,56.7
2022-08-21T12:28:47.180Z,56.1
2022-08-21T12:29:51.432Z,55.9
2022-08-21T12:31:57.265Z,55.7
2022-08-21T12:34:03.083Z,55.3
2022-08-21T12:36:08.862Z,54.1
2022-08-21T12:38:17.397Z,53.9
2022-08-21T12:40:23.231Z,54.1
2022-08-21T12:44:34.768Z,55.1
2022-08-21T12:46:40.577Z,55.4
2022-08-21T12:48:46.356Z,55.4
2022-08-21T12:50:52.157Z,56
2022-08-21T12:55:06.496Z,58.1
2022-08-21T12:57:12.330Z,58
2022-08-21T12:59:18.137Z,57.8
2022-08-21T13:01:24.093Z,55.8
2022-08-21T13:03:29.784Z,55.4
2022-08-21T13:05:35.597Z,54.9
2022-08-21T13:07:44.134Z,54.6
2022-08-21T13:09:49.963Z,54.7
2022-08-21T13:11:55.829Z,54.6
2022-08-21T13:14:04.811Z,54.9
2022-08-21T13:16:07.522Z,55
2022-08-21T13:18:13.373Z,55
2022-08-21T13:20:19.193Z,54.7
2022-08-21T13:27:43.651Z,53
2022-08-21T13:34:01.182Z,54.8
2022-08-21T13:38:15.586Z,54.7
2022-08-21T13:40:21.473Z,53.9
2022-08-21T13:42:27.260Z,53.6
2022-08-21T13:44:33.121Z,53.1
2022-08-21T13:46:38.982Z,53
2022-08-21T13:48:44.802Z,53.1
2022-08-21T13:50:53.352Z,53.5
2022-08-21T13:52:59.353Z,53.7
2022-08-21T13:55:05.062Z,53.6
2022-08-21T13:57:10.898Z,53.7
2022-08-21T13:59:16.819Z,53.7
2022-08-21T14:01:22.663Z,53.8
2022-08-21T14:03:28.488Z,54.4
2022-08-21T14:05:37.088Z,55.6
2022-08-21T14:07:42.963Z,56
2022-08-21T14:09:48.844Z,55.8
2022-08-21T14:14:00.633Z,54.7
2022-08-21T14:16:06.520Z,54.1
2022-08-21T14:18:12.426Z,53.7
2022-08-21T14:20:21.010Z,53.3
2022-08-21T14:22:26.919Z,53.6
2022-08-21T14:25:37.152Z,55.4
2022-08-21T14:27:43.065Z,56.4
2022-08-21T14:29:48.963Z,57.8
2022-08-21T14:31:54.911Z,58
2022-08-21T14:34:03.503Z,58.8
2022-08-21T14:36:10.952Z,59
2022-08-21T14:38:16.847Z,59.2
2022-08-21T14:40:23.002Z,59.4
2022-08-21T14:42:28.778Z,59.6
2022-08-21T14:44:34.872Z,59.9
2022-08-21T14:46:51.723Z,60.3
2022-08-21T14:48:49.759Z,61.3
2022-08-21T14:51:00.192Z,61.7
2022-08-21T14:53:01.913Z,62.1
2022-08-21T14:55:08.004Z,62.4
2022-08-21T14:57:14.113Z,62.4
2022-08-21T14:59:20.165Z,62.4
2022-08-21T15:01:26.306Z,62.3
2022-08-21T15:03:35.127Z,61.7
2022-08-21T15:05:41.204Z,61.4
2022-08-21T15:07:47.284Z,61.5
2022-08-21T15:09:53.356Z,61.6
2022-08-21T15:11:59.452Z,61.7
2022-08-21T15:14:05.588Z,62.2
2022-08-21T15:16:11.663Z,63.7
2022-08-21T15:18:20.520Z,66
2022-08-21T15:20:26.621Z,67.1
2022-08-21T15:22:32.734Z,68.5
2022-08-21T15:27:04.266Z,70.7
2022-08-21T15:31:19.250Z,72.1
2022-08-21T15:39:46.280Z,73.8
2022-08-21T15:43:55.929Z,75
2022-08-21T15:46:04.835Z,75.6
2022-08-21T15:48:10.969Z,75.9
2022-08-21T15:50:17.084Z,75.8
2022-08-21T15:52:23.187Z,75.6
2022-08-21T15:54:29.312Z,75.7
2022-08-21T15:56:35.627Z,75.7
2022-08-21T15:58:41.585Z,75.8
2022-08-21T16:00:50.727Z,76.1
2022-08-21T16:02:56.626Z,76.3
2022-08-21T16:05:02.747Z,76.4
2022-08-21T16:07:09.827Z,76.5
2022-08-21T16:09:15.029Z,78
2022-08-21T16:11:21.169Z,81.6
2022-08-21T16:13:30.623Z,81.8
2022-08-21T16:15:36.224Z,82.4
2022-08-21T16:17:42.380Z,82.5
2022-08-21T16:19:48.513Z,82.5
2022-08-21T16:20:52.967Z,82.6
2022-08-21T16:22:59.290Z,82.7
2022-08-21T16:25:05.301Z,82.7
2022-08-21T16:27:11.428Z,83.3
2022-08-21T16:29:20.341Z,84.5
2022-08-21T16:33:32.664Z,85.4
2022-08-21T16:35:38.823Z,85.6
2022-08-21T16:37:44.983Z,86
2022-08-21T16:39:51.227Z,86.2
2022-08-21T16:44:06.235Z,86.4
2022-08-21T16:46:12.384Z,86.5
2022-08-21T16:48:18.553Z,86.6
2022-08-21T16:50:24.740Z,86.8
2022-08-21T16:52:30.911Z,86.8
2022-08-21T16:54:37.066Z,87.1
2022-08-21T16:56:47.480Z,87.3
2022-08-21T16:58:52.207Z,87.7
2022-08-21T17:00:58.404Z,87.8
2022-08-21T17:03:04.547Z,88
2022-08-21T17:05:13.638Z,88.1
2022-08-21T17:07:16.895Z,88.2
2022-08-21T17:09:23.441Z,88.1
2022-08-21T17:11:36.583Z,87
2022-08-21T17:13:38.239Z,85.7
2022-08-21T17:15:44.397Z,85.4
2022-08-21T17:17:50.614Z,84.9
2022-08-21T17:18:55.325Z,85.1
2022-08-21T17:21:01.237Z,84.9
2022-08-21T17:23:07.473Z,85
2022-08-21T17:25:13.658Z,85.2
2022-08-21T17:27:22.561Z,85.1
2022-08-21T17:29:28.773Z,84.8
2022-08-21T17:31:34.994Z,84.8
2022-08-21T17:37:53.531Z,84.3
2022-08-21T17:39:59.756Z,84.5
2022-08-21T17:46:21.104Z,85.3
2022-08-21T17:48:27.309Z,85.8
2022-08-21T17:50:33.484Z,85.9
2022-08-21T17:52:39.681Z,86.2
2022-08-21T17:56:54.882Z,87.8
2022-08-21T17:59:01.061Z,88.5
2022-08-21T18:01:07.353Z,88.8
2022-08-21T18:03:13.483Z,89.2
2022-08-21T18:05:19.675Z,89.7
2022-08-21T18:07:32.815Z,89.8
2022-08-21T18:09:32.095Z,90
2022-08-21T18:11:41.064Z,90.5
2022-08-21T18:13:47.258Z,90.8
2022-08-21T18:15:53.503Z,91.1
2022-08-21T18:19:04.201Z,91.7
2022-08-21T18:21:10.453Z,92
2022-08-21T18:23:16.613Z,92.4
2022-08-21T18:25:25.579Z,93.5
2022-08-21T18:27:31.814Z,93.9
2022-08-21T18:38:02.892Z,96.4
2022-08-21T18:40:12.069Z,97.2
2022-08-21T18:42:18.121Z,97.7
2022-08-21T18:44:24.339Z,98.2
2022-08-21T18:46:30.558Z,98.6
2022-08-21T18:48:36.794Z,99.1
2022-08-21T18:50:43.005Z,99.5
2022-08-21T18:53:02.664Z,99.7
2022-08-21T18:54:58.217Z,99.8
2022-08-21T18:57:05.617Z,99.9
2022-08-21T18:59:10.679Z,99.9
2022-08-21T19:01:17.035Z,99.9
2022-08-21T19:03:23.980Z,99.9
2022-08-21T19:05:29.353Z,99.9
2022-08-21T19:13:57.062Z,99.9
2022-08-21T19:16:22.822Z,99.9
2022-08-21T19:18:29.083Z,99.9
2022-08-21T19:20:35.283Z,99.9
2022-08-21T19:22:44.285Z,99.9
2022-08-21T19:24:50.499Z,99.9
2022-08-21T19:26:56.716Z,99.9
2022-08-21T19:29:02.940Z,99.9
2022-08-21T19:31:10.084Z,99.9
2022-08-21T19:33:22.242Z,99.9
2022-08-21T19:35:21.624Z,99.9
2022-08-21T19:37:30.621Z,99.9
2022-08-21T19:39:36.856Z,99.9
2022-08-21T19:41:43.066Z,99.9
2022-08-21T19:43:49.262Z,99.9
2022-08-21T19:45:55.474Z,99.9
2022-08-21T19:48:01.724Z,99.9
2022-08-21T19:50:17.444Z,99.9
2022-08-21T19:58:35.588Z,99.9
2022-08-21T20:00:44.126Z,99.9
2022-08-21T20:02:48.440Z,99.9
2022-08-21T20:04:55.049Z,99.9
2022-08-21T20:07:03.237Z,99.9
2022-08-21T20:09:09.475Z,99.9
2022-08-21T20:11:15.709Z,99.9
2022-08-21T20:12:20.201Z,99.9
2022-08-21T20:14:26.415Z,99.9
2022-08-21T20:20:47.868Z,99.9
2022-08-21T20:25:00.320Z,99.9
2022-08-21T20:27:06.567Z,99.9
2022-08-21T20:29:12.827Z,99.9
2022-08-21T20:33:25.301Z,99.9
2022-08-21T20:35:34.320Z,99.9
2022-08-21T20:37:40.536Z,99.9
2022-08-21T20:44:00.825Z,99.9
2022-08-21T20:50:22.342Z,99.9
2022-08-21T20:52:28.588Z,99.9
2022-08-21T20:54:34.843Z,99.9
2022-08-21T20:58:47.359Z,99.9
2022-08-21T21:03:00.265Z,99.9
2022-08-21T21:05:08.898Z,99.9
2022-08-21T21:07:15.150Z,99.9
2022-08-21T21:10:25.907Z,99.9
2022-08-21T21:12:32.152Z,99.9
2022-08-21T21:14:38.607Z,99.9
2022-08-21T21:16:45.929Z,99.9
2022-08-21T21:18:53.794Z,99.9
2022-08-21T21:21:00.039Z,99.9
2022-08-21T21:23:06.287Z,99.9
2022-08-21T21:25:12.555Z,99.9
2022-08-21T21:27:18.845Z,99.9
2022-08-21T21:29:25.102Z,99.9
2022-08-21T21:31:31.374Z,99.9
2022-08-21T21:33:40.397Z,99.9
2022-08-21T21:35:49.083Z,99.9
2022-08-21T21:37:52.946Z,99.9
2022-08-21T21:42:05.504Z,99.9
2022-08-21T21:48:27.072Z,99.9
2022-08-21T21:52:39.637Z,99.9
2022-08-21T21:54:46.034Z,99.9
2022-08-21T21:58:58.468Z,99.9
2022-08-21T22:01:04.752Z,99.9
2022-08-21T22:03:13.768Z,99.9
2022-08-21T22:05:20.026Z,99.9
2022-08-21T22:07:26.313Z,99.9
2022-08-21T22:08:30.811Z,99.9
2022-08-21T22:10:43.214Z,99.9
2022-08-21T22:12:50.122Z,99.9
2022-08-21T22:14:49.695Z,99.9
2022-08-21T22:16:58.695Z,99.9
2022-08-21T22:19:06.605Z,99.9
2022-08-21T22:23:17.567Z,99.9
2022-08-21T22:25:23.868Z,99.9
2022-08-21T22:27:30.865Z,99.9
2022-08-21T22:29:36.447Z,99.9
2022-08-21T22:31:45.464Z,99.9
2022-08-21T22:33:51.785Z,99.9
2022-08-21T22:35:58.062Z,99.9
2022-08-21T22:38:04.356Z,99.9
2022-08-21T22:40:10.708Z,99.9
2022-08-21T22:42:16.961Z,99.9
2022-08-21T22:44:23.229Z,99.9
2022-08-21T22:48:38.565Z,99.9
2022-08-21T22:59:10.350Z,99.9
2022-08-21T23:01:19.058Z,99.9
2022-08-21T23:03:25.507Z,99.9
2022-08-21T23:07:57.467Z,99.9
2022-08-21T23:12:21.727Z,99.9
2022-08-21T23:16:25.509Z,99.9
2022-08-21T23:18:31.822Z,99.9
2022-08-21T23:20:38.080Z,99.9
2022-08-21T23:22:44.365Z,99.9
2022-08-21T23:24:50.668Z,99.9
2022-08-21T23:26:56.976Z,99.9
2022-08-21T23:29:07.724Z,99.9
2022-08-21T23:31:12.297Z,99.9
2022-08-21T23:33:18.567Z,99.9
2022-08-21T23:39:37.477Z,99.9
2022-08-21T23:45:59.091Z,99.9
2022-08-21T23:48:05.390Z,99.9
2022-08-21T23:52:18.079Z,99.9
2022-08-21T23:56:30.784Z,99.9
